sensor_id;sensor_type;location;lat;lon;timestamp;P1;durP1;ratioP1;P2;durP2;ratioP2
70199;SDS011;57587;55.688;37.600;2022-08-19T00:01:45;18.25;;;5.70;;
70199;SDS011;57587;55.688;37.600;2022-08-19T00:04:20;26.38;;;6.20;;
70199;SDS011;57587;55.688;37.600;2022-08-19T00:06:49;20.42;;;6.22;;
70199;SDS011;57587;55.688;37.600;2022-08-19T00:09:17;12.00;;;5.40;;
70199;SDS011;57587;55.688;37.600;2022-08-19T00:11:45;12.30;;;5.80;;
70199;SDS011;57587;55.688;37.600;2022-08-19T00:14:14;15.07;;;5.38;;
70199;SDS011;57587;55.688;37.600;2022-08-19T00:16:43;12.10;;;5.20;;
70199;SDS011;57587;55.688;37.600;2022-08-19T00:19:12;7.57;;;5.18;;
70199;SDS011;57587;55.688;37.600;2022-08-19T00:21:40;9.70;;;5.60;;
70199;SDS011;57587;55.688;37.600;2022-08-19T00:24:08;10.90;;;5.03;;
70199;SDS011;57587;55.688;37.600;2022-08-19T00:26:37;11.90;;;5.00;;
70199;SDS011;57587;55.688;37.600;2022-08-19T00:29:04;11.48;;;5.43;;
70199;SDS011;57587;55.688;37.600;2022-08-19T00:31:33;14.60;;;5.00;;
70199;SDS011;57587;55.688;37.600;2022-08-19T00:34:00;12.17;;;5.97;;
70199;SDS011;57587;55.688;37.600;2022-08-19T00:36:27;15.15;;;5.78;;
70199;SDS011;57587;55.688;37.600;2022-08-19T00:38:55;9.77;;;5.60;;
70199;SDS011;57587;55.688;37.600;2022-08-19T00:41:23;10.50;;;5.65;;
70199;SDS011;57587;55.688;37.600;2022-08-19T00:44:04;13.43;;;5.25;;
70199;SDS011;57587;55.688;37.600;2022-08-19T00:46:40;12.73;;;5.30;;
70199;SDS011;57587;55.688;37.600;2022-08-19T00:51:52;10.75;;;5.30;;
70199;SDS011;57587;55.688;37.600;2022-08-19T00:54:23;20.27;;;6.07;;
70199;SDS011;57587;55.688;37.600;2022-08-19T00:56:59;11.75;;;5.18;;
70199;SDS011;57587;55.688;37.600;2022-08-19T00:59:30;14.13;;;5.33;;
70199;SDS011;57587;55.688;37.600;2022-08-19T01:02:17;12.23;;;5.45;;
70199;SDS011;57587;55.688;37.600;2022-08-19T01:04:53;14.00;;;5.53;;
70199;SDS011;57587;55.688;37.600;2022-08-19T01:07:21;11.93;;;5.45;;
70199;SDS011;57587;55.688;37.600;2022-08-19T01:09:49;14.98;;;6.15;;
70199;SDS011;57587;55.688;37.600;2022-08-19T01:12:16;12.27;;;5.80;;
70199;SDS011;57587;55.688;37.600;2022-08-19T01:14:45;16.98;;;5.95;;
70199;SDS011;57587;55.688;37.600;2022-08-19T01:17:14;18.10;;;6.10;;
70199;SDS011;57587;55.688;37.600;2022-08-19T01:19:45;16.88;;;5.78;;
70199;SDS011;57587;55.688;37.600;2022-08-19T01:25:00;15.27;;;5.50;;
70199;SDS011;57587;55.688;37.600;2022-08-19T01:27:37;13.05;;;6.32;;
70199;SDS011;57587;55.688;37.600;2022-08-19T01:30:12;13.30;;;5.75;;
70199;SDS011;57587;55.688;37.600;2022-08-19T01:32:44;17.95;;;6.22;;
70199;SDS011;57587;55.688;37.600;2022-08-19T01:35:11;16.20;;;7.07;;
70199;SDS011;57587;55.688;37.600;2022-08-19T01:37:46;14.23;;;6.40;;
70199;SDS011;57587;55.688;37.600;2022-08-19T01:40:16;13.15;;;6.13;;
70199;SDS011;57587;55.688;37.600;2022-08-19T01:42:47;11.15;;;5.50;;
70199;SDS011;57587;55.688;37.600;2022-08-19T01:45:15;13.38;;;5.85;;
70199;SDS011;57587;55.688;37.600;2022-08-19T01:47:43;17.67;;;5.53;;
70199;SDS011;57587;55.688;37.600;2022-08-19T01:50:27;18.40;;;6.17;;
70199;SDS011;57587;55.688;37.600;2022-08-19T01:52:54;18.05;;;5.90;;
70199;SDS011;57587;55.688;37.600;2022-08-19T01:55:34;12.40;;;5.65;;
70199;SDS011;57587;55.688;37.600;2022-08-19T01:58:11;15.20;;;5.68;;
70199;SDS011;57587;55.688;37.600;2022-08-19T02:00:41;11.65;;;5.70;;
70199;SDS011;57587;55.688;37.600;2022-08-19T02:03:09;15.10;;;5.60;;
70199;SDS011;57587;55.688;37.600;2022-08-19T02:05:38;12.52;;;5.70;;
70199;SDS011;57587;55.688;37.600;2022-08-19T02:08:08;20.77;;;5.88;;
70199;SDS011;57587;55.688;37.600;2022-08-19T02:10:38;12.30;;;5.95;;
70199;SDS011;57587;55.688;37.600;2022-08-19T02:13:07;13.40;;;5.50;;
70199;SDS011;57587;55.688;37.600;2022-08-19T02:15:54;12.40;;;5.57;;
70199;SDS011;57587;55.688;37.600;2022-08-19T02:18:21;15.35;;;6.63;;
70199;SDS011;57587;55.688;37.600;2022-08-19T02:20:53;19.88;;;6.75;;
70199;SDS011;57587;55.688;37.600;2022-08-19T02:23:21;17.15;;;7.03;;
70199;SDS011;57587;55.688;37.600;2022-08-19T02:25:48;20.48;;;6.30;;
70199;SDS011;57587;55.688;37.600;2022-08-19T02:28:17;15.40;;;6.88;;
70199;SDS011;57587;55.688;37.600;2022-08-19T02:30:44;16.55;;;6.45;;
70199;SDS011;57587;55.688;37.600;2022-08-19T02:33:12;12.60;;;5.97;;
70199;SDS011;57587;55.688;37.600;2022-08-19T02:35:42;21.65;;;6.45;;
70199;SDS011;57587;55.688;37.600;2022-08-19T02:38:10;19.33;;;6.45;;
70199;SDS011;57587;55.688;37.600;2022-08-19T02:40:54;16.33;;;6.50;;
70199;SDS011;57587;55.688;37.600;2022-08-19T02:43:23;16.05;;;6.15;;
70199;SDS011;57587;55.688;37.600;2022-08-19T02:45:51;12.90;;;5.95;;
70199;SDS011;57587;55.688;37.600;2022-08-19T02:48:19;26.70;;;7.65;;
70199;SDS011;57587;55.688;37.600;2022-08-19T02:50:48;15.77;;;6.22;;
70199;SDS011;57587;55.688;37.600;2022-08-19T02:53:23;13.23;;;5.47;;
70199;SDS011;57587;55.688;37.600;2022-08-19T02:55:52;18.08;;;6.45;;
70199;SDS011;57587;55.688;37.600;2022-08-19T02:58:20;17.52;;;6.70;;
70199;SDS011;57587;55.688;37.600;2022-08-19T03:00:49;21.52;;;7.22;;
70199;SDS011;57587;55.688;37.600;2022-08-19T03:03:19;17.77;;;6.57;;
70199;SDS011;57587;55.688;37.600;2022-08-19T03:05:47;18.60;;;7.17;;
70199;SDS011;57587;55.688;37.600;2022-08-19T03:08:23;15.85;;;6.70;;
70199;SDS011;57587;55.688;37.600;2022-08-19T03:10:52;13.25;;;6.30;;
70199;SDS011;57587;55.688;37.600;2022-08-19T03:13:20;17.17;;;6.65;;
70199;SDS011;57587;55.688;37.600;2022-08-19T03:15:47;12.18;;;6.25;;
70199;SDS011;57587;55.688;37.600;2022-08-19T03:18:15;25.37;;;6.80;;
70199;SDS011;57587;55.688;37.600;2022-08-19T03:20:44;16.73;;;6.82;;
70199;SDS011;57587;55.688;37.600;2022-08-19T03:23:13;15.15;;;6.78;;
70199;SDS011;57587;55.688;37.600;2022-08-19T03:25:43;23.75;;;7.43;;
70199;SDS011;57587;55.688;37.600;2022-08-19T03:28:28;16.08;;;6.78;;
70199;SDS011;57587;55.688;37.600;2022-08-19T03:31:03;19.97;;;7.87;;
70199;SDS011;57587;55.688;37.600;2022-08-19T03:33:55;18.75;;;7.15;;
70199;SDS011;57587;55.688;37.600;2022-08-19T03:36:23;17.05;;;6.63;;
70199;SDS011;57587;55.688;37.600;2022-08-19T03:38:56;19.48;;;6.97;;
70199;SDS011;57587;55.688;37.600;2022-08-19T03:41:29;21.13;;;7.03;;
70199;SDS011;57587;55.688;37.600;2022-08-19T03:44:12;17.07;;;7.33;;
70199;SDS011;57587;55.688;37.600;2022-08-19T03:46:44;14.68;;;6.60;;
70199;SDS011;57587;55.688;37.600;2022-08-19T03:49:13;13.77;;;6.43;;
70199;SDS011;57587;55.688;37.600;2022-08-19T03:51:40;13.50;;;6.60;;
70199;SDS011;57587;55.688;37.600;2022-08-19T03:54:10;18.08;;;7.10;;
70199;SDS011;57587;55.688;37.600;2022-08-19T03:56:40;17.10;;;6.80;;
70199;SDS011;57587;55.688;37.600;2022-08-19T03:59:11;17.77;;;6.70;;
70199;SDS011;57587;55.688;37.600;2022-08-19T04:01:42;14.93;;;7.10;;
70199;SDS011;57587;55.688;37.600;2022-08-19T04:04:09;18.58;;;6.53;;
70199;SDS011;57587;55.688;37.600;2022-08-19T04:06:37;15.88;;;6.85;;
70199;SDS011;57587;55.688;37.600;2022-08-19T04:09:09;23.25;;;7.03;;
70199;SDS011;57587;55.688;37.600;2022-08-19T04:11:39;16.00;;;6.50;;
70199;SDS011;57587;55.688;37.600;2022-08-19T04:14:12;26.27;;;7.07;;
70199;SDS011;57587;55.688;37.600;2022-08-19T04:16:43;17.83;;;6.95;;
70199;SDS011;57587;55.688;37.600;2022-08-19T04:19:11;20.27;;;7.10;;
70199;SDS011;57587;55.688;37.600;2022-08-19T04:21:39;19.23;;;7.23;;
70199;SDS011;57587;55.688;37.600;2022-08-19T04:24:09;13.00;;;6.43;;
70199;SDS011;57587;55.688;37.600;2022-08-19T04:26:37;16.88;;;6.68;;
70199;SDS011;57587;55.688;37.600;2022-08-19T04:29:13;18.75;;;6.20;;
70199;SDS011;57587;55.688;37.600;2022-08-19T04:31:42;23.02;;;7.00;;
70199;SDS011;57587;55.688;37.600;2022-08-19T04:34:12;17.17;;;7.27;;
70199;SDS011;57587;55.688;37.600;2022-08-19T04:36:44;19.20;;;6.93;;
70199;SDS011;57587;55.688;37.600;2022-08-19T04:39:13;19.27;;;7.13;;
70199;SDS011;57587;55.688;37.600;2022-08-19T04:41:42;20.63;;;7.93;;
70199;SDS011;57587;55.688;37.600;2022-08-19T04:44:32;17.90;;;7.85;;
70199;SDS011;57587;55.688;37.600;2022-08-19T04:47:03;18.73;;;7.67;;
70199;SDS011;57587;55.688;37.600;2022-08-19T04:49:37;15.55;;;7.13;;
70199;SDS011;57587;55.688;37.600;2022-08-19T04:52:04;21.67;;;7.10;;
70199;SDS011;57587;55.688;37.600;2022-08-19T04:54:31;21.63;;;8.85;;
70199;SDS011;57587;55.688;37.600;2022-08-19T04:57:07;25.08;;;8.68;;
70199;SDS011;57587;55.688;37.600;2022-08-19T04:59:37;18.63;;;6.93;;
70199;SDS011;57587;55.688;37.600;2022-08-19T05:02:06;21.05;;;8.07;;
70199;SDS011;57587;55.688;37.600;2022-08-19T05:04:35;21.73;;;7.90;;
70199;SDS011;57587;55.688;37.600;2022-08-19T05:07:06;19.92;;;8.02;;
70199;SDS011;57587;55.688;37.600;2022-08-19T05:09:34;14.52;;;7.07;;
70199;SDS011;57587;55.688;37.600;2022-08-19T05:12:22;19.43;;;7.40;;
70199;SDS011;57587;55.688;37.600;2022-08-19T05:14:55;15.95;;;7.55;;
70199;SDS011;57587;55.688;37.600;2022-08-19T05:17:24;15.85;;;7.38;;
70199;SDS011;57587;55.688;37.600;2022-08-19T05:19:56;23.02;;;8.27;;
70199;SDS011;57587;55.688;37.600;2022-08-19T05:22:42;31.33;;;7.90;;
70199;SDS011;57587;55.688;37.600;2022-08-19T05:25:13;21.50;;;7.50;;
70199;SDS011;57587;55.688;37.600;2022-08-19T05:27:42;15.00;;;6.97;;
70199;SDS011;57587;55.688;37.600;2022-08-19T05:30:10;13.20;;;6.60;;
70199;SDS011;57587;55.688;37.600;2022-08-19T05:32:38;17.50;;;7.10;;
70199;SDS011;57587;55.688;37.600;2022-08-19T05:35:06;15.27;;;7.50;;
70199;SDS011;57587;55.688;37.600;2022-08-19T05:37:33;19.50;;;6.87;;
70199;SDS011;57587;55.688;37.600;2022-08-19T05:40:01;18.20;;;6.95;;
70199;SDS011;57587;55.688;37.600;2022-08-19T05:42:36;17.58;;;7.35;;
70199;SDS011;57587;55.688;37.600;2022-08-19T05:45:04;16.25;;;7.38;;
70199;SDS011;57587;55.688;37.600;2022-08-19T05:47:31;16.30;;;7.07;;
70199;SDS011;57587;55.688;37.600;2022-08-19T05:49:58;21.20;;;7.03;;
70199;SDS011;57587;55.688;37.600;2022-08-19T05:52:25;15.32;;;7.18;;
70199;SDS011;57587;55.688;37.600;2022-08-19T05:54:55;19.95;;;7.68;;
70199;SDS011;57587;55.688;37.600;2022-08-19T05:57:30;25.13;;;7.47;;
70199;SDS011;57587;55.688;37.600;2022-08-19T05:59:57;16.35;;;6.95;;
70199;SDS011;57587;55.688;37.600;2022-08-19T06:02:29;16.50;;;7.23;;
70199;SDS011;57587;55.688;37.600;2022-08-19T06:04:57;23.40;;;8.02;;
70199;SDS011;57587;55.688;37.600;2022-08-19T06:07:24;17.98;;;7.40;;
70199;SDS011;57587;55.688;37.600;2022-08-19T06:09:52;13.77;;;7.38;;
70199;SDS011;57587;55.688;37.600;2022-08-19T06:12:29;22.17;;;7.20;;
70199;SDS011;57587;55.688;37.600;2022-08-19T06:15:02;16.50;;;7.70;;
70199;SDS011;57587;55.688;37.600;2022-08-19T06:17:35;19.13;;;7.15;;
70199;SDS011;57587;55.688;37.600;2022-08-19T06:20:03;16.73;;;6.57;;
70199;SDS011;57587;55.688;37.600;2022-08-19T06:22:42;20.27;;;7.07;;
70199;SDS011;57587;55.688;37.600;2022-08-19T06:25:11;15.93;;;6.45;;
70199;SDS011;57587;55.688;37.600;2022-08-19T06:27:40;16.77;;;6.63;;
70199;SDS011;57587;55.688;37.600;2022-08-19T06:30:27;16.50;;;6.18;;
70199;SDS011;57587;55.688;37.600;2022-08-19T06:32:55;16.65;;;6.18;;
70199;SDS011;57587;55.688;37.600;2022-08-19T06:35:22;16.02;;;6.38;;
70199;SDS011;57587;55.688;37.600;2022-08-19T06:37:49;17.08;;;7.13;;
70199;SDS011;57587;55.688;37.600;2022-08-19T06:40:16;16.73;;;6.27;;
70199;SDS011;57587;55.688;37.600;2022-08-19T06:42:43;18.90;;;6.40;;
70199;SDS011;57587;55.688;37.600;2022-08-19T06:45:21;16.00;;;5.80;;
70199;SDS011;57587;55.688;37.600;2022-08-19T06:48:01;21.58;;;6.47;;
70199;SDS011;57587;55.688;37.600;2022-08-19T06:50:29;20.33;;;6.07;;
70199;SDS011;57587;55.688;37.600;2022-08-19T06:52:56;18.73;;;6.63;;
70199;SDS011;57587;55.688;37.600;2022-08-19T06:55:26;18.35;;;6.60;;
70199;SDS011;57587;55.688;37.600;2022-08-19T06:58:01;16.52;;;6.75;;
70199;SDS011;57587;55.688;37.600;2022-08-19T07:00:30;24.67;;;7.80;;
70199;SDS011;57587;55.688;37.600;2022-08-19T07:03:02;18.00;;;6.93;;
70199;SDS011;57587;55.688;37.600;2022-08-19T07:05:38;15.40;;;6.37;;
70199;SDS011;57587;55.688;37.600;2022-08-19T07:08:12;18.85;;;6.82;;
70199;SDS011;57587;55.688;37.600;2022-08-19T07:10:43;17.38;;;7.05;;
70199;SDS011;57587;55.688;37.600;2022-08-19T07:13:14;19.33;;;7.72;;
70199;SDS011;57587;55.688;37.600;2022-08-19T07:15:41;19.80;;;6.97;;
70199;SDS011;57587;55.688;37.600;2022-08-19T07:18:08;17.70;;;8.00;;
70199;SDS011;57587;55.688;37.600;2022-08-19T07:20:37;19.98;;;7.35;;
70199;SDS011;57587;55.688;37.600;2022-08-19T07:23:07;17.13;;;7.65;;
70199;SDS011;57587;55.688;37.600;2022-08-19T07:25:43;19.58;;;7.47;;
70199;SDS011;57587;55.688;37.600;2022-08-19T07:28:18;19.73;;;7.80;;
70199;SDS011;57587;55.688;37.600;2022-08-19T07:30:50;26.83;;;6.93;;
70199;SDS011;57587;55.688;37.600;2022-08-19T07:33:21;14.40;;;6.60;;
70199;SDS011;57587;55.688;37.600;2022-08-19T07:35:48;16.65;;;6.38;;
70199;SDS011;57587;55.688;37.600;2022-08-19T07:38:16;21.05;;;7.07;;
70199;SDS011;57587;55.688;37.600;2022-08-19T07:40:44;20.60;;;6.38;;
70199;SDS011;57587;55.688;37.600;2022-08-19T07:43:13;11.57;;;5.90;;
70199;SDS011;57587;55.688;37.600;2022-08-19T07:45:43;20.38;;;6.18;;
70199;SDS011;57587;55.688;37.600;2022-08-19T07:48:13;21.40;;;7.07;;
70199;SDS011;57587;55.688;37.600;2022-08-19T07:51:05;23.67;;;6.55;;
70199;SDS011;57587;55.688;37.600;2022-08-19T07:53:43;30.25;;;7.32;;
70199;SDS011;57587;55.688;37.600;2022-08-19T07:56:12;13.20;;;6.93;;
70199;SDS011;57587;55.688;37.600;2022-08-19T07:58:41;22.02;;;6.78;;
70199;SDS011;57587;55.688;37.600;2022-08-19T08:01:11;13.30;;;6.22;;
70199;SDS011;57587;55.688;37.600;2022-08-19T08:03:47;14.70;;;6.50;;
70199;SDS011;57587;55.688;37.600;2022-08-19T08:06:33;24.70;;;6.40;;
70199;SDS011;57587;55.688;37.600;2022-08-19T08:09:31;22.40;;;6.63;;
70199;SDS011;57587;55.688;37.600;2022-08-19T08:14:57;16.92;;;6.97;;
70199;SDS011;57587;55.688;37.600;2022-08-19T08:17:30;13.30;;;6.85;;
70199;SDS011;57587;55.688;37.600;2022-08-19T08:20:15;18.05;;;7.18;;
70199;SDS011;57587;55.688;37.600;2022-08-19T08:22:46;16.07;;;6.70;;
70199;SDS011;57587;55.688;37.600;2022-08-19T08:25:33;17.92;;;6.43;;
70199;SDS011;57587;55.688;37.600;2022-08-19T08:28:02;15.48;;;6.22;;
70199;SDS011;57587;55.688;37.600;2022-08-19T08:30:30;11.75;;;6.45;;
70199;SDS011;57587;55.688;37.600;2022-08-19T08:32:59;11.43;;;6.10;;
70199;SDS011;57587;55.688;37.600;2022-08-19T08:35:28;21.93;;;6.60;;
70199;SDS011;57587;55.688;37.600;2022-08-19T08:37:55;13.77;;;5.82;;
70199;SDS011;57587;55.688;37.600;2022-08-19T08:43:03;9.98;;;5.40;;
70199;SDS011;57587;55.688;37.600;2022-08-19T08:45:59;16.25;;;5.82;;
70199;SDS011;57587;55.688;37.600;2022-08-19T08:48:30;16.60;;;6.13;;
70199;SDS011;57587;55.688;37.600;2022-08-19T08:51:21;13.85;;;5.53;;
70199;SDS011;57587;55.688;37.600;2022-08-19T08:54:00;16.15;;;5.47;;
70199;SDS011;57587;55.688;37.600;2022-08-19T08:56:39;11.98;;;5.15;;
70199;SDS011;57587;55.688;37.600;2022-08-19T09:01:48;23.67;;;5.20;;
70199;SDS011;57587;55.688;37.600;2022-08-19T09:04:16;11.43;;;4.88;;
70199;SDS011;57587;55.688;37.600;2022-08-19T09:12:10;27.58;;;6.50;;
70199;SDS011;57587;55.688;37.600;2022-08-19T09:14:49;18.13;;;5.33;;
70199;SDS011;57587;55.688;37.600;2022-08-19T09:17:22;14.60;;;5.57;;
70199;SDS011;57587;55.688;37.600;2022-08-19T09:22:43;19.30;;;6.07;;
70199;SDS011;57587;55.688;37.600;2022-08-19T09:25:12;17.13;;;5.93;;
70199;SDS011;57587;55.688;37.600;2022-08-19T09:27:42;11.83;;;5.53;;
70199;SDS011;57587;55.688;37.600;2022-08-19T09:30:14;11.48;;;5.78;;
70199;SDS011;57587;55.688;37.600;2022-08-19T09:32:50;12.93;;;5.32;;
70199;SDS011;57587;55.688;37.600;2022-08-19T09:35:22;19.20;;;5.85;;
70199;SDS011;57587;55.688;37.600;2022-08-19T09:37:54;12.75;;;5.68;;
70199;SDS011;57587;55.688;37.600;2022-08-19T09:40:26;8.83;;;4.63;;
70199;SDS011;57587;55.688;37.600;2022-08-19T09:42:57;16.73;;;5.32;;
70199;SDS011;57587;55.688;37.600;2022-08-19T09:45:27;18.60;;;5.63;;
70199;SDS011;57587;55.688;37.600;2022-08-19T09:47:54;16.73;;;5.38;;
70199;SDS011;57587;55.688;37.600;2022-08-19T09:50:23;22.35;;;4.90;;
70199;SDS011;57587;55.688;37.600;2022-08-19T09:52:50;15.80;;;4.67;;
70199;SDS011;57587;55.688;37.600;2022-08-19T09:55:23;19.25;;;5.35;;
70199;SDS011;57587;55.688;37.600;2022-08-19T09:57:58;37.55;;;5.15;;
70199;SDS011;57587;55.688;37.600;2022-08-19T10:00:28;17.38;;;5.05;;
70199;SDS011;57587;55.688;37.600;2022-08-19T10:02:57;26.15;;;4.80;;
70199;SDS011;57587;55.688;37.600;2022-08-19T10:05:24;31.27;;;5.30;;
70199;SDS011;57587;55.688;37.600;2022-08-19T10:08:24;18.55;;;4.25;;
70199;SDS011;57587;55.688;37.600;2022-08-19T10:10:54;22.20;;;4.82;;
70199;SDS011;57587;55.688;37.600;2022-08-19T10:13:25;13.93;;;4.00;;
70199;SDS011;57587;55.688;37.600;2022-08-19T10:15:55;17.25;;;4.38;;
70199;SDS011;57587;55.688;37.600;2022-08-19T10:18:24;17.50;;;3.90;;
70199;SDS011;57587;55.688;37.600;2022-08-19T10:20:52;13.73;;;4.13;;
70199;SDS011;57587;55.688;37.600;2022-08-19T10:23:20;12.18;;;4.53;;
70199;SDS011;57587;55.688;37.600;2022-08-19T10:25:48;11.75;;;3.88;;
70199;SDS011;57587;55.688;37.600;2022-08-19T10:28:16;12.95;;;4.47;;
70199;SDS011;57587;55.688;37.600;2022-08-19T10:30:45;27.10;;;4.60;;
70199;SDS011;57587;55.688;37.600;2022-08-19T10:33:21;14.75;;;5.07;;
70199;SDS011;57587;55.688;37.600;2022-08-19T10:36:10;20.65;;;5.13;;
70199;SDS011;57587;55.688;37.600;2022-08-19T10:38:45;21.35;;;4.93;;
70199;SDS011;57587;55.688;37.600;2022-08-19T10:41:22;31.00;;;4.68;;
70199;SDS011;57587;55.688;37.600;2022-08-19T10:43:51;19.77;;;4.20;;
70199;SDS011;57587;55.688;37.600;2022-08-19T10:46:23;19.70;;;4.55;;
70199;SDS011;57587;55.688;37.600;2022-08-19T10:48:52;21.33;;;4.35;;
70199;SDS011;57587;55.688;37.600;2022-08-19T10:51:20;16.98;;;4.00;;
70199;SDS011;57587;55.688;37.600;2022-08-19T10:54:14;22.67;;;4.35;;
70199;SDS011;57587;55.688;37.600;2022-08-19T10:56:41;24.83;;;4.63;;
70199;SDS011;57587;55.688;37.600;2022-08-19T10:59:25;28.42;;;4.65;;
70199;SDS011;57587;55.688;37.600;2022-08-19T11:02:02;26.90;;;4.22;;
70199;SDS011;57587;55.688;37.600;2022-08-19T11:04:30;21.15;;;3.90;;
70199;SDS011;57587;55.688;37.600;2022-08-19T11:06:59;15.00;;;3.60;;
70199;SDS011;57587;55.688;37.600;2022-08-19T11:09:26;7.70;;;3.40;;
70199;SDS011;57587;55.688;37.600;2022-08-19T11:11:59;12.68;;;3.90;;
70199;SDS011;57587;55.688;37.600;2022-08-19T11:14:31;15.20;;;4.53;;
70199;SDS011;57587;55.688;37.600;2022-08-19T11:17:00;8.25;;;3.50;;
70199;SDS011;57587;55.688;37.600;2022-08-19T11:19:27;10.55;;;3.70;;
70199;SDS011;57587;55.688;37.600;2022-08-19T11:21:54;12.90;;;4.20;;
70199;SDS011;57587;55.688;37.600;2022-08-19T11:24:24;7.75;;;3.47;;
70199;SDS011;57587;55.688;37.600;2022-08-19T11:26:53;13.85;;;4.10;;
70199;SDS011;57587;55.688;37.600;2022-08-19T11:29:26;16.13;;;3.88;;
70199;SDS011;57587;55.688;37.600;2022-08-19T11:31:54;13.45;;;3.80;;
70199;SDS011;57587;55.688;37.600;2022-08-19T11:34:23;17.13;;;4.23;;
70199;SDS011;57587;55.688;37.600;2022-08-19T11:36:54;11.43;;;3.78;;
70199;SDS011;57587;55.688;37.600;2022-08-19T11:39:26;10.63;;;3.40;;
70199;SDS011;57587;55.688;37.600;2022-08-19T11:41:54;13.82;;;3.88;;
70199;SDS011;57587;55.688;37.600;2022-08-19T11:44:21;16.13;;;4.32;;
70199;SDS011;57587;55.688;37.600;2022-08-19T11:46:48;10.27;;;3.90;;
70199;SDS011;57587;55.688;37.600;2022-08-19T11:49:16;11.98;;;4.32;;
70199;SDS011;57587;55.688;37.600;2022-08-19T11:51:48;12.82;;;3.75;;
70199;SDS011;57587;55.688;37.600;2022-08-19T11:54:19;10.52;;;3.90;;
70199;SDS011;57587;55.688;37.600;2022-08-19T11:56:47;11.98;;;4.07;;
70199;SDS011;57587;55.688;37.600;2022-08-19T11:59:15;15.27;;;3.67;;
70199;SDS011;57587;55.688;37.600;2022-08-19T12:01:42;9.45;;;3.92;;
70199;SDS011;57587;55.688;37.600;2022-08-19T12:04:10;13.35;;;3.90;;
70199;SDS011;57587;55.688;37.600;2022-08-19T12:06:38;13.52;;;3.78;;
70199;SDS011;57587;55.688;37.600;2022-08-19T12:09:07;19.02;;;4.90;;
70199;SDS011;57587;55.688;37.600;2022-08-19T12:11:36;25.03;;;4.47;;
70199;SDS011;57587;55.688;37.600;2022-08-19T12:14:05;12.82;;;4.57;;
70199;SDS011;57587;55.688;37.600;2022-08-19T12:16:33;20.05;;;4.50;;
70199;SDS011;57587;55.688;37.600;2022-08-19T12:19:05;20.35;;;4.75;;
70199;SDS011;57587;55.688;37.600;2022-08-19T12:21:33;12.13;;;4.75;;
70199;SDS011;57587;55.688;37.600;2022-08-19T12:24:01;12.83;;;4.30;;
70199;SDS011;57587;55.688;37.600;2022-08-19T12:26:30;14.10;;;4.45;;
70199;SDS011;57587;55.688;37.600;2022-08-19T12:28:58;18.95;;;4.55;;
70199;SDS011;57587;55.688;37.600;2022-08-19T12:31:27;14.85;;;4.60;;
70199;SDS011;57587;55.688;37.600;2022-08-19T12:33:54;12.05;;;4.30;;
70199;SDS011;57587;55.688;37.600;2022-08-19T12:36:22;15.70;;;4.50;;
70199;SDS011;57587;55.688;37.600;2022-08-19T12:38:52;15.70;;;4.15;;
70199;SDS011;57587;55.688;37.600;2022-08-19T12:41:19;9.65;;;4.47;;
70199;SDS011;57587;55.688;37.600;2022-08-19T12:43:48;13.05;;;4.00;;
70199;SDS011;57587;55.688;37.600;2022-08-19T12:46:19;14.77;;;4.72;;
70199;SDS011;57587;55.688;37.600;2022-08-19T12:48:51;17.13;;;4.70;;
70199;SDS011;57587;55.688;37.600;2022-08-19T12:51:21;20.73;;;5.20;;
70199;SDS011;57587;55.688;37.600;2022-08-19T12:53:51;20.25;;;4.57;;
70199;SDS011;57587;55.688;37.600;2022-08-19T12:56:18;18.00;;;5.25;;
70199;SDS011;57587;55.688;37.600;2022-08-19T12:58:49;17.85;;;5.05;;
70199;SDS011;57587;55.688;37.600;2022-08-19T13:01:19;10.67;;;4.00;;
70199;SDS011;57587;55.688;37.600;2022-08-19T13:03:49;11.45;;;4.22;;
70199;SDS011;57587;55.688;37.600;2022-08-19T13:06:16;12.48;;;4.20;;
70199;SDS011;57587;55.688;37.600;2022-08-19T13:08:46;14.60;;;4.53;;
70199;SDS011;57587;55.688;37.600;2022-08-19T13:11:17;17.15;;;4.68;;
70199;SDS011;57587;55.688;37.600;2022-08-19T13:13:47;10.20;;;4.70;;
70199;SDS011;57587;55.688;37.600;2022-08-19T13:16:16;27.33;;;5.50;;
70199;SDS011;57587;55.688;37.600;2022-08-19T13:18:44;31.92;;;7.43;;
70199;SDS011;57587;55.688;37.600;2022-08-19T13:21:19;14.27;;;6.75;;
70199;SDS011;57587;55.688;37.600;2022-08-19T13:23:49;18.80;;;6.80;;
70199;SDS011;57587;55.688;37.600;2022-08-19T13:26:17;15.83;;;6.87;;
70199;SDS011;57587;55.688;37.600;2022-08-19T13:28:45;12.38;;;7.03;;
70199;SDS011;57587;55.688;37.600;2022-08-19T13:31:32;23.40;;;5.50;;
70199;SDS011;57587;55.688;37.600;2022-08-19T13:34:25;21.58;;;8.13;;
70199;SDS011;57587;55.688;37.600;2022-08-19T13:36:56;13.85;;;9.38;;
70199;SDS011;57587;55.688;37.600;2022-08-19T13:39:24;20.90;;;9.30;;
70199;SDS011;57587;55.688;37.600;2022-08-19T13:41:51;17.92;;;6.60;;
70199;SDS011;57587;55.688;37.600;2022-08-19T13:44:19;16.63;;;5.55;;
70199;SDS011;57587;55.688;37.600;2022-08-19T13:46:46;10.95;;;4.53;;
70199;SDS011;57587;55.688;37.600;2022-08-19T13:49:19;11.43;;;4.70;;
70199;SDS011;57587;55.688;37.600;2022-08-19T13:51:47;16.10;;;5.33;;
70199;SDS011;57587;55.688;37.600;2022-08-19T13:54:21;15.18;;;5.22;;
70199;SDS011;57587;55.688;37.600;2022-08-19T13:56:48;14.90;;;5.22;;
70199;SDS011;57587;55.688;37.600;2022-08-19T13:59:15;17.27;;;6.35;;
70199;SDS011;57587;55.688;37.600;2022-08-19T14:01:43;15.57;;;6.30;;
70199;SDS011;57587;55.688;37.600;2022-08-19T14:04:12;22.53;;;13.20;;
70199;SDS011;57587;55.688;37.600;2022-08-19T14:06:40;21.40;;;13.93;;
70199;SDS011;57587;55.688;37.600;2022-08-19T14:09:07;19.20;;;13.23;;
70199;SDS011;57587;55.688;37.600;2022-08-19T14:11:34;22.83;;;12.10;;
70199;SDS011;57587;55.688;37.600;2022-08-19T14:14:01;20.48;;;11.13;;
70199;SDS011;57587;55.688;37.600;2022-08-19T14:16:28;18.93;;;12.27;;
70199;SDS011;57587;55.688;37.600;2022-08-19T14:18:59;20.25;;;11.60;;
70199;SDS011;57587;55.688;37.600;2022-08-19T14:21:26;18.38;;;10.52;;
70199;SDS011;57587;55.688;37.600;2022-08-19T14:23:53;20.33;;;9.43;;
70199;SDS011;57587;55.688;37.600;2022-08-19T14:26:22;22.98;;;11.43;;
70199;SDS011;57587;55.688;37.600;2022-08-19T14:28:50;21.63;;;12.50;;
70199;SDS011;57587;55.688;37.600;2022-08-19T14:31:21;19.20;;;12.20;;
70199;SDS011;57587;55.688;37.600;2022-08-19T14:33:56;16.88;;;12.05;;
70199;SDS011;57587;55.688;37.600;2022-08-19T14:36:24;20.70;;;12.93;;
70199;SDS011;57587;55.688;37.600;2022-08-19T14:38:51;27.20;;;17.88;;
70199;SDS011;57587;55.688;37.600;2022-08-19T14:41:19;33.27;;;19.13;;
70199;SDS011;57587;55.688;37.600;2022-08-19T14:43:52;29.52;;;21.08;;
70199;SDS011;57587;55.688;37.600;2022-08-19T14:46:22;32.35;;;20.80;;
70199;SDS011;57587;55.688;37.600;2022-08-19T14:48:54;30.27;;;20.35;;
70199;SDS011;57587;55.688;37.600;2022-08-19T14:51:25;41.15;;;25.52;;
70199;SDS011;57587;55.688;37.600;2022-08-19T14:53:53;40.80;;;25.70;;
70199;SDS011;57587;55.688;37.600;2022-08-19T14:56:24;34.78;;;23.35;;
70199;SDS011;57587;55.688;37.600;2022-08-19T14:58:53;34.42;;;22.85;;
70199;SDS011;57587;55.688;37.600;2022-08-19T15:01:21;30.95;;;21.02;;
70199;SDS011;57587;55.688;37.600;2022-08-19T15:03:50;30.23;;;20.23;;
70199;SDS011;57587;55.688;37.600;2022-08-19T15:06:19;26.93;;;19.60;;